createdAt,value
2019-02-10T00:00:55.459Z,11.33
2019-02-10T00:03:26.997Z,12.63
2019-02-10T00:05:58.775Z,10.27
2019-02-10T00:08:30.831Z,10.97
2019-02-10T00:11:02.359Z,11.63
2019-02-10T00:13:35.973Z,9.97
2019-02-10T00:16:19.723Z,10.43
2019-02-10T00:18:51.174Z,8.90
2019-02-10T00:21:23.529Z,9.97
2019-02-10T00:23:55.358Z,13.40
2019-02-10T00:26:27.566Z,8.60
2019-02-10T00:28:59.441Z,11.13
2019-02-10T00:31:31.186Z,9.83
2019-02-10T00:34:02.749Z,12.73
2019-02-10T00:36:34.287Z,8.13
2019-02-10T00:39:09.676Z,14.43
2019-02-10T00:41:41.408Z,10.40
2019-02-10T00:44:12.905Z,12.53
2019-02-10T00:46:44.534Z,17.87
2019-02-10T00:49:16.247Z,11.33
2019-02-10T00:51:48.323Z,11.53
2019-02-10T00:54:20.339Z,10.57
2019-02-10T00:56:51.871Z,16.97
2019-02-10T00:59:24.323Z,9.37
2019-02-10T01:01:55.971Z,15.13
2019-02-10T01:04:27.467Z,14.27
2019-02-10T01:06:59.048Z,10.07
2019-02-10T01:09:30.735Z,12.83
2019-02-10T01:12:02.363Z,11.23
2019-02-10T01:14:33.879Z,15.67
2019-02-10T01:17:05.405Z,15.23
2019-02-10T01:19:36.919Z,11.90
2019-02-10T01:22:10.083Z,12.80
2019-02-10T01:24:41.759Z,8.37
2019-02-10T01:27:13.345Z,12.10
2019-02-10T01:29:44.799Z,12.53
2019-02-10T01:32:16.567Z,9.00
2019-02-10T01:34:48.028Z,10.90
2019-02-10T01:37:19.620Z,12.33
2019-02-10T01:39:51.393Z,14.70
2019-02-10T01:42:22.984Z,11.00
2019-02-10T01:44:54.432Z,14.00
2019-02-10T01:47:26.201Z,11.23
2019-02-10T01:49:57.669Z,8.73
2019-02-10T01:52:29.228Z,8.40
2019-02-10T01:55:01.044Z,13.30
2019-02-10T01:57:32.811Z,10.70
2019-02-10T02:00:05.831Z,13.80
2019-02-10T02:02:38.521Z,12.77
2019-02-10T02:05:10.875Z,9.77
2019-02-10T02:07:42.487Z,11.20
2019-02-10T02:10:15.268Z,10.90
2019-02-10T02:12:47.072Z,10.03
2019-02-10T02:15:18.560Z,11.40
2019-02-10T02:17:50.371Z,10.90
2019-02-10T02:20:21.868Z,9.37
2019-02-10T02:22:53.423Z,10.07
2019-02-10T02:25:25.335Z,12.97
2019-02-10T02:27:56.835Z,14.17
2019-02-10T02:30:28.423Z,15.67
2019-02-10T02:33:00.227Z,11.13
2019-02-10T02:35:31.682Z,11.33
2019-02-10T02:38:04.352Z,12.67
2019-02-10T02:40:36.058Z,10.33
2019-02-10T02:43:07.658Z,12.23
2019-02-10T02:45:39.220Z,10.37
2019-02-10T02:48:10.970Z,7.67
2019-02-10T02:50:42.393Z,9.53
2019-02-10T02:53:14.189Z,9.87
2019-02-10T02:55:45.908Z,9.33
2019-02-10T02:58:17.700Z,8.13
2019-02-10T03:00:49.222Z,8.13
2019-02-10T03:03:20.910Z,7.67
2019-02-10T03:05:52.347Z,10.13
2019-02-10T03:08:23.947Z,10.67
2019-02-10T03:10:55.833Z,9.43
2019-02-10T03:13:27.396Z,9.70
2019-02-10T03:15:58.833Z,7.77
2019-02-10T03:18:30.461Z,9.53
2019-02-10T03:21:01.918Z,11.33
2019-02-10T03:23:33.758Z,8.83
2019-02-10T03:26:05.302Z,8.37
2019-02-10T03:28:36.979Z,8.60
2019-02-10T03:31:08.476Z,9.50
2019-02-10T03:33:40.278Z,9.23
2019-02-10T03:36:11.781Z,9.87
2019-02-10T03:38:43.487Z,10.33
2019-02-10T03:41:15.229Z,8.30
2019-02-10T03:43:46.783Z,11.37
2019-02-10T03:46:18.201Z,12.43
2019-02-10T03:48:49.930Z,10.67
2019-02-10T03:51:21.351Z,9.90
2019-02-10T03:53:52.886Z,7.60
2019-02-10T03:56:24.356Z,7.90
2019-02-10T03:58:55.959Z,8.00
2019-02-10T04:01:27.470Z,8.90
2019-02-10T04:03:58.989Z,9.73
2019-02-10T04:06:31.520Z,7.17
2019-02-10T04:09:04.012Z,10.70
2019-02-10T04:11:36.172Z,6.13
2019-02-10T04:14:07.691Z,9.67
2019-02-10T04:16:39.154Z,8.53
2019-02-10T04:19:10.668Z,7.47
2019-02-10T04:21:42.136Z,6.23
2019-02-10T04:24:13.684Z,9.07
2019-02-10T04:26:45.471Z,8.57
2019-02-10T04:29:17.238Z,7.53
2019-02-10T04:31:48.678Z,7.43
2019-02-10T04:34:20.336Z,8.17
2019-02-10T04:36:51.774Z,8.60
2019-02-10T04:39:23.442Z,8.97
2019-02-10T04:41:54.983Z,8.47
2019-02-10T04:44:26.561Z,7.37
2019-02-10T04:46:58.007Z,8.70
2019-02-10T04:49:29.661Z,7.80
2019-02-10T04:52:01.105Z,7.40
2019-02-10T04:54:32.633Z,7.77
2019-02-10T04:57:04.411Z,7.50
2019-02-10T04:59:36.181Z,8.30
2019-02-10T05:02:07.625Z,9.03
2019-02-10T05:04:39.170Z,7.47
2019-02-10T05:07:10.590Z,6.73
2019-02-10T05:09:42.102Z,8.57
2019-02-10T05:12:13.917Z,6.10
2019-02-10T05:14:45.721Z,8.13
2019-02-10T05:17:17.229Z,7.73
2019-02-10T05:19:48.821Z,6.93
2019-02-10T05:22:20.321Z,7.50
2019-02-10T05:24:52.037Z,7.37
2019-02-10T05:27:23.627Z,7.33
2019-02-10T05:29:55.347Z,6.80
2019-02-10T05:32:26.843Z,8.00
2019-02-10T05:34:58.525Z,9.57
2019-02-10T05:37:30.012Z,6.87
2019-02-10T05:40:01.768Z,7.50
2019-02-10T05:42:33.509Z,9.23
2019-02-10T05:45:05.356Z,8.37
2019-02-10T05:47:36.825Z,9.53
2019-02-10T05:50:08.777Z,7.27
2019-02-10T05:52:40.217Z,6.23
2019-02-10T05:55:11.919Z,7.80
2019-02-10T05:57:43.627Z,7.50
2019-02-10T06:00:15.360Z,8.97
2019-02-10T06:02:46.885Z,7.83
2019-02-10T06:05:22.324Z,6.60
2019-02-10T06:07:53.782Z,7.40
2019-02-10T06:10:25.256Z,10.70
2019-02-10T06:12:57.107Z,9.90
2019-02-10T06:15:28.544Z,8.53
2019-02-10T06:18:00.010Z,9.20
2019-02-10T06:20:31.540Z,8.27
2019-02-10T06:23:03.001Z,9.83
2019-02-10T06:25:34.615Z,7.70
2019-02-10T06:28:06.392Z,8.47
2019-02-10T06:30:38.104Z,7.23
2019-02-10T06:33:09.544Z,7.13
2019-02-10T06:35:41.098Z,8.80
2019-02-10T06:38:12.552Z,8.37
2019-02-10T06:40:44.288Z,9.07
2019-02-10T06:43:16.052Z,10.30
2019-02-10T06:45:47.704Z,9.37
2019-02-10T06:48:19.150Z,9.87
2019-02-10T06:50:50.771Z,8.60
2019-02-10T06:53:22.228Z,10.23
2019-02-10T06:55:53.925Z,11.23
2019-02-10T06:58:25.687Z,9.43
2019-02-10T07:01:09.768Z,11.60
2019-02-10T07:04:09.357Z,10.93
2019-02-10T07:06:40.804Z,9.73
2019-02-10T07:09:12.257Z,10.10
2019-02-10T07:11:43.709Z,8.70
2019-02-10T07:14:37.521Z,11.87
2019-02-10T07:18:21.630Z,10.13
2019-02-10T07:20:53.099Z,11.17
2019-02-10T07:24:20.846Z,10.93
2019-02-10T07:26:57.143Z,9.27
2019-02-10T07:30:04.639Z,9.20
2019-02-10T07:32:42.961Z,9.03
2019-02-10T07:36:05.993Z,9.13
2019-02-10T07:39:14.158Z,8.67
2019-02-10T07:42:26.524Z,9.87
2019-02-10T07:45:50.846Z,8.50
2019-02-10T07:49:03.831Z,8.03
2019-02-10T07:52:16.502Z,8.17
2019-02-10T07:55:36.439Z,9.90
2019-02-10T07:58:39.775Z,9.47
2019-02-10T08:01:55.888Z,10.70
2019-02-10T08:05:37.038Z,8.43
2019-02-10T08:08:48.119Z,10.70
2019-02-10T08:12:44.253Z,6.70
2019-02-10T08:15:46.717Z,8.83
2019-02-10T08:19:28.797Z,11.63
2019-02-10T08:22:44.534Z,12.10
2019-02-10T08:26:06.330Z,13.53
2019-02-10T08:29:26.452Z,12.93
2019-02-10T08:33:01.999Z,11.30
2019-02-10T08:35:52.397Z,8.63
2019-02-10T08:39:36.512Z,8.63
2019-02-10T08:42:37.921Z,8.00
2019-02-10T08:46:02.610Z,11.40
2019-02-10T08:49:31.579Z,12.63
2019-02-10T08:52:51.907Z,6.43
2019-02-10T08:55:20.792Z,10.10
2019-02-10T08:57:52.220Z,11.83
2019-02-10T09:00:23.873Z,11.00
2019-02-10T09:02:55.314Z,9.60
2019-02-10T09:05:27.208Z,9.40
2019-02-10T09:07:58.741Z,14.20
2019-02-10T09:10:30.557Z,10.47
2019-02-10T09:13:02.199Z,9.40
2019-02-10T09:15:33.746Z,9.67
2019-02-10T09:18:05.258Z,10.03
2019-02-10T09:20:37.782Z,11.80
2019-02-10T09:23:09.271Z,8.13
2019-02-10T09:25:40.741Z,7.57
2019-02-10T09:28:12.248Z,9.83
2019-02-10T09:30:43.834Z,9.03
2019-02-10T09:33:27.359Z,9.53
2019-02-10T09:35:59.177Z,10.53
2019-02-10T09:38:30.714Z,11.57
2019-02-10T09:41:02.398Z,10.37
2019-02-10T09:43:33.910Z,10.83
2019-02-10T09:46:05.444Z,10.67
2019-02-10T09:48:36.948Z,11.03
2019-02-10T09:51:08.821Z,6.60
2019-02-10T09:53:41.333Z,10.90
2019-02-10T09:56:13.159Z,10.03
2019-02-10T09:58:44.685Z,11.80
2019-02-10T10:01:16.469Z,9.43
2019-02-10T10:03:48.044Z,10.93
2019-02-10T10:06:20.198Z,9.50
2019-02-10T10:08:51.677Z,6.90
2019-02-10T10:11:23.495Z,10.00
2019-02-10T10:13:54.961Z,8.63
2019-02-10T10:16:26.704Z,8.07
2019-02-10T10:18:58.230Z,6.30
2019-02-10T10:21:30.215Z,8.17
2019-02-10T10:24:01.853Z,9.27
2019-02-10T10:26:33.364Z,6.10
2019-02-10T10:29:04.888Z,7.63
2019-02-10T10:31:36.416Z,9.63
2019-02-10T10:34:07.988Z,11.77
2019-02-10T10:36:40.155Z,7.63
2019-02-10T10:39:11.622Z,9.40
2019-02-10T10:41:43.287Z,10.60
2019-02-10T10:44:14.754Z,12.27
2019-02-10T10:46:46.303Z,8.87
2019-02-10T10:49:17.788Z,9.87
2019-02-10T10:51:49.574Z,11.50
2019-02-10T10:54:21.143Z,9.90
2019-02-10T10:56:52.849Z,10.97
2019-02-10T10:59:24.480Z,12.43
2019-02-10T11:01:56.224Z,11.53
2019-02-10T11:04:27.746Z,11.77
2019-02-10T11:06:59.925Z,12.30
2019-02-10T11:09:35.601Z,7.43
2019-02-10T11:12:04.908Z,12.27
2019-02-10T11:14:36.358Z,9.70
2019-02-10T11:17:10.481Z,10.93
2019-02-10T11:19:41.317Z,11.63
2019-02-10T11:22:13.372Z,10.63
2019-02-10T11:24:45.169Z,8.07
2019-02-10T11:27:17.050Z,11.33
2019-02-10T11:29:48.617Z,10.27
2019-02-10T11:32:20.402Z,11.23
2019-02-10T11:34:51.953Z,11.00
2019-02-10T11:37:26.858Z,9.23
2019-02-10T11:39:57.348Z,11.97
2019-02-10T11:42:28.843Z,11.47
2019-02-10T11:45:00.484Z,11.07
2019-02-10T11:47:32.291Z,10.23
2019-02-10T11:50:03.859Z,11.80
2019-02-10T11:52:36.326Z,10.00
2019-02-10T11:55:08.128Z,10.33
2019-02-10T11:57:40.376Z,9.10
2019-02-10T12:00:12.986Z,9.20
2019-02-10T12:02:44.798Z,11.77
2019-02-10T12:05:16.340Z,11.00
2019-02-10T12:07:48.399Z,11.77
2019-02-10T12:10:20.077Z,9.40
2019-02-10T12:12:51.836Z,13.47
2019-02-10T12:15:23.425Z,11.43
2019-02-10T12:17:55.223Z,10.10
2019-02-10T12:20:26.929Z,10.90
2019-02-10T12:22:59.168Z,10.87
2019-02-10T12:25:30.754Z,12.40
2019-02-10T12:28:02.709Z,10.77
2019-02-10T12:30:34.375Z,10.93
2019-02-10T12:33:06.302Z,11.03
2019-02-10T12:35:37.811Z,9.47
2019-02-10T12:38:09.820Z,11.83
2019-02-10T12:40:41.818Z,11.00
2019-02-10T12:43:13.722Z,10.27
2019-02-10T12:45:45.370Z,9.13
2019-02-10T12:48:17.276Z,9.77
2019-02-10T12:50:48.874Z,11.27
2019-02-10T12:53:20.780Z,11.33
2019-02-10T12:55:52.412Z,11.07
2019-02-10T12:58:23.895Z,11.93
2019-02-10T13:00:55.488Z,11.20
2019-02-10T13:03:27.132Z,9.00
2019-02-10T13:05:58.900Z,10.20
2019-02-10T13:08:31.125Z,9.43
2019-02-10T13:11:02.661Z,7.90
2019-02-10T13:13:34.579Z,9.87
2019-02-10T13:16:06.175Z,9.83
2019-02-10T13:18:38.179Z,10.27
2019-02-10T13:21:11.008Z,10.27
2019-02-10T13:23:43.119Z,9.30
2019-02-10T13:26:14.841Z,9.27
2019-02-10T13:28:46.627Z,10.43
2019-02-10T13:31:18.177Z,10.33
2019-02-10T13:33:50.053Z,10.70
2019-02-10T13:36:21.606Z,11.57
2019-02-10T13:38:53.696Z,9.87
2019-02-10T13:41:35.325Z,10.87
2019-02-10T13:44:08.377Z,9.73
2019-02-10T13:46:40.116Z,10.80
2019-02-10T13:49:11.804Z,9.67
2019-02-10T13:51:43.310Z,10.43
2019-02-10T13:54:15.417Z,10.43
2019-02-10T13:56:47.005Z,10.00
2019-02-10T13:59:18.761Z,9.30
2019-02-10T14:01:50.466Z,9.90
2019-02-10T14:04:22.149Z,11.17
2019-02-10T14:06:53.821Z,11.37
2019-02-10T14:09:25.776Z,11.77
2019-02-10T14:11:57.257Z,13.40
2019-02-10T14:14:29.185Z,16.67
2019-02-10T14:17:01.927Z,13.83
2019-02-10T14:19:35.245Z,16.23
2019-02-10T14:22:06.799Z,15.37
2019-02-10T14:24:38.722Z,20.13
2019-02-10T14:27:10.214Z,18.17
2019-02-10T14:29:41.722Z,11.67
2019-02-10T14:32:13.264Z,14.30
2019-02-10T14:34:44.913Z,10.87
2019-02-10T14:37:16.418Z,12.10
2019-02-10T14:39:48.142Z,12.43
2019-02-10T14:42:19.696Z,13.13
2019-02-10T14:44:51.484Z,14.07
2019-02-10T14:47:23.020Z,14.47
2019-02-10T14:49:54.664Z,13.17
2019-02-10T14:52:26.380Z,14.17
2019-02-10T14:54:58.071Z,14.20
2019-02-10T14:57:29.686Z,11.77
2019-02-10T15:00:01.265Z,14.73
2019-02-10T15:02:34.594Z,14.67
2019-02-10T15:05:06.564Z,13.13
2019-02-10T15:07:38.244Z,14.13
2019-02-10T15:10:13.104Z,13.80
2019-02-10T15:12:44.695Z,16.37
2019-02-10T15:15:16.586Z,13.57
2019-02-10T15:17:48.242Z,16.17
2019-02-10T15:20:19.991Z,16.90
2019-02-10T15:22:51.604Z,17.20
2019-02-10T15:25:23.551Z,17.30
2019-02-10T15:27:55.105Z,13.87
2019-02-10T15:30:26.860Z,15.07
2019-02-10T15:32:58.607Z,14.70
2019-02-10T15:35:30.458Z,14.47
2019-02-10T15:38:01.985Z,16.10
2019-02-10T15:40:34.091Z,17.27
2019-02-10T15:43:05.677Z,17.37
2019-02-10T15:45:37.775Z,16.50
2019-02-10T15:48:09.591Z,18.00
2019-02-10T15:50:41.309Z,14.20
2019-02-10T15:53:12.833Z,18.27
2019-02-10T15:55:44.595Z,19.20
2019-02-10T15:58:16.368Z,18.53
2019-02-10T16:00:48.232Z,21.27
2019-02-10T16:03:20.209Z,19.73
2019-02-10T16:05:51.929Z,18.03
2019-02-10T16:08:24.828Z,18.83
2019-02-10T16:10:58.474Z,18.50
2019-02-10T16:13:30.322Z,18.07
2019-02-10T16:16:01.964Z,19.80
2019-02-10T16:18:33.429Z,21.37
2019-02-10T16:21:05.656Z,18.37
2019-02-10T16:23:38.386Z,21.37
2019-02-10T16:26:10.712Z,23.57
2019-02-10T16:28:42.898Z,23.93
2019-02-10T16:31:14.429Z,23.40
2019-02-10T16:33:46.024Z,20.13
2019-02-10T16:36:17.788Z,22.77
2019-02-10T16:38:49.368Z,22.40
2019-02-10T16:41:21.732Z,24.80
2019-02-10T16:43:53.545Z,25.80
2019-02-10T16:46:25.536Z,21.23
2019-02-10T16:48:57.041Z,24.33
2019-02-10T16:51:28.793Z,20.37
2019-02-10T16:54:00.441Z,20.97
2019-02-10T16:56:32.685Z,28.70
2019-02-10T16:59:04.976Z,24.10
2019-02-10T17:01:38.047Z,26.73
2019-02-10T17:04:09.724Z,30.67
2019-02-10T17:06:41.639Z,28.93
2019-02-10T17:09:13.649Z,23.60
2019-02-10T17:11:45.591Z,29.93
2019-02-10T17:14:17.256Z,30.17
2019-02-10T17:16:49.407Z,27.03
2019-02-10T17:19:20.922Z,30.13
2019-02-10T17:21:52.956Z,26.70
2019-02-10T17:24:24.540Z,27.10
2019-02-10T17:26:56.971Z,29.00
2019-02-10T17:29:28.799Z,24.97
2019-02-10T17:32:01.122Z,26.60
2019-02-10T17:34:33.011Z,23.33
2019-02-10T17:37:04.586Z,27.87
2019-02-10T17:39:36.308Z,27.07
2019-02-10T17:42:08.330Z,25.03
2019-02-10T17:44:40.075Z,24.83
2019-02-10T17:47:11.957Z,20.60
2019-02-10T17:49:43.690Z,24.93
2019-02-10T17:52:15.732Z,24.87
2019-02-10T17:54:48.376Z,24.60
2019-02-10T17:57:20.539Z,24.17
2019-02-10T17:59:52.181Z,21.07
2019-02-10T18:02:24.038Z,23.30
2019-02-10T18:04:55.763Z,25.37
2019-02-10T18:07:27.571Z,23.67
2019-02-10T18:09:59.251Z,22.80
2019-02-10T18:12:31.307Z,27.40
2019-02-10T18:15:20.362Z,25.63
2019-02-10T18:18:20.222Z,23.80
2019-02-10T18:21:04.631Z,22.83
2019-02-10T18:23:54.384Z,24.70
2019-02-10T18:26:34.220Z,22.10
2019-02-10T18:29:16.951Z,22.13
2019-02-10T18:32:10.365Z,23.03
2019-02-10T18:34:58.290Z,24.20
2019-02-10T18:37:49.658Z,25.80
2019-02-10T18:40:32.796Z,25.73
2019-02-10T18:43:14.878Z,23.87
2019-02-10T18:46:02.753Z,23.97
2019-02-10T18:49:00.830Z,23.07
2019-02-10T18:52:03.343Z,25.20
2019-02-10T18:54:52.845Z,20.83
2019-02-10T18:57:43.387Z,21.63
2019-02-10T19:00:34.157Z,22.80
2019-02-10T19:03:22.324Z,23.23
2019-02-10T19:06:25.368Z,21.97
2019-02-10T19:09:19.712Z,24.07
2019-02-10T19:12:22.289Z,21.47
2019-02-10T19:15:15.838Z,26.10
2019-02-10T19:18:09.205Z,22.50
2019-02-10T19:20:58.092Z,23.70
2019-02-10T19:24:03.612Z,24.17
2019-02-10T19:26:57.427Z,23.00
2019-02-10T19:29:56.708Z,31.67
2019-02-10T19:32:47.358Z,26.10
2019-02-10T19:35:31.501Z,21.83
2019-02-10T19:38:26.851Z,20.73
2019-02-10T19:41:23.456Z,25.10
2019-02-10T19:44:10.513Z,25.53
2019-02-10T19:47:13.342Z,22.33
2019-02-10T19:50:06.829Z,21.80
2019-02-10T19:52:47.704Z,25.70
2019-02-10T19:55:34.514Z,24.33
2019-02-10T19:58:23.545Z,24.70
2019-02-10T20:01:17.577Z,24.57
2019-02-10T20:04:10.838Z,20.10
2019-02-10T20:07:00.365Z,21.77
2019-02-10T20:09:55.184Z,25.13
2019-02-10T20:12:52.207Z,25.03
2019-02-10T20:15:48.714Z,21.23
2019-02-10T20:18:42.182Z,20.73
2019-02-10T20:21:21.321Z,26.80
2019-02-10T20:24:21.368Z,22.30
2019-02-10T20:27:12.541Z,25.07
2019-02-10T20:30:03.288Z,30.30
2019-02-10T20:33:04.040Z,26.60
2019-02-10T20:35:53.222Z,28.07
2019-02-10T20:38:39.663Z,25.33
2019-02-10T20:41:30.443Z,25.20
2019-02-10T20:44:32.894Z,23.67
2019-02-10T20:47:18.205Z,21.00
2019-02-10T20:50:11.647Z,25.00
2019-02-10T20:53:09.237Z,21.83
2019-02-10T20:56:02.650Z,25.93
2019-02-10T20:58:42.759Z,25.17
2019-02-10T21:01:48.194Z,24.00
2019-02-10T21:04:43.229Z,25.17
2019-02-10T21:07:33.655Z,21.27
2019-02-10T21:10:23.778Z,21.30
2019-02-10T21:13:17.185Z,22.63
2019-02-10T21:16:02.858Z,26.27
2019-02-10T21:18:49.327Z,24.60
2019-02-10T21:21:28.405Z,26.10
2019-02-10T21:24:17.389Z,24.77
2019-02-10T21:27:08.317Z,27.00
2019-02-10T21:30:01.686Z,21.83
2019-02-10T21:32:49.805Z,26.43
2019-02-10T21:35:30.814Z,25.60
2019-02-10T21:38:12.244Z,22.43
2019-02-10T21:40:53.435Z,25.97
2019-02-10T21:43:32.745Z,23.70
2019-02-10T21:46:19.732Z,23.63
2019-02-10T21:49:00.373Z,24.63
2019-02-10T21:51:32.017Z,22.73
2019-02-10T21:54:03.545Z,28.37
2019-02-10T21:56:35.135Z,24.97
2019-02-10T21:59:06.749Z,24.97
2019-02-10T22:01:38.293Z,22.63
2019-02-10T22:04:09.916Z,25.90
2019-02-10T22:06:41.524Z,22.37
2019-02-10T22:09:13.101Z,25.97
2019-02-10T22:11:45.110Z,23.77
2019-02-10T22:14:16.847Z,27.80
2019-02-10T22:16:49.324Z,22.70
2019-02-10T22:19:21.081Z,24.43
2019-02-10T22:21:52.944Z,26.50
2019-02-10T22:24:24.571Z,21.60
2019-02-10T22:26:56.184Z,20.60
2019-02-10T22:29:27.999Z,25.83
2019-02-10T22:31:59.503Z,24.13
2019-02-10T22:34:31.074Z,23.40
2019-02-10T22:37:02.795Z,23.67
2019-02-10T22:39:34.460Z,22.00
2019-02-10T22:42:06.181Z,24.10
2019-02-10T22:44:38.070Z,25.77
2019-02-10T22:47:09.634Z,21.00
2019-02-10T22:49:41.702Z,21.83
2019-02-10T22:52:13.507Z,23.40
2019-02-10T22:54:45.287Z,20.73
2019-02-10T22:57:16.817Z,23.90
2019-02-10T22:59:48.604Z,23.27
2019-02-10T23:02:20.135Z,24.33
2019-02-10T23:04:51.905Z,24.33
2019-02-10T23:07:23.652Z,23.60
2019-02-10T23:09:55.530Z,21.50
2019-02-10T23:12:27.030Z,22.37
2019-02-10T23:14:58.755Z,25.43
2019-02-10T23:17:30.218Z,22.30
2019-02-10T23:20:01.810Z,22.93
2019-02-10T23:22:33.897Z,23.87
2019-02-10T23:25:06.188Z,23.90
2019-02-10T23:27:37.761Z,22.17
2019-02-10T23:30:09.341Z,22.03
2019-02-10T23:32:40.915Z,20.37
2019-02-10T23:35:12.457Z,22.90
2019-02-10T23:37:43.979Z,23.47
2019-02-10T23:40:15.485Z,21.47
2019-02-10T23:42:46.928Z,22.53
2019-02-10T23:45:18.393Z,20.97
2019-02-10T23:47:50.104Z,18.33
2019-02-10T23:50:22.085Z,21.67
2019-02-10T23:52:53.933Z,25.57
2019-02-10T23:55:26.147Z,21.67
2019-02-10T23:57:57.749Z,23.27
